sensor_id;sensor_type;location;lat;lon;timestamp;P1;durP1;ratioP1;P2;durP2;ratioP2
71963;SDS011;59834;52.124;5.422;2022-11-21T00:01:11;29.27;;;12.67;;
71963;SDS011;59834;52.124;5.422;2022-11-21T00:03:46;30.98;;;13.32;;
71963;SDS011;59834;52.124;5.422;2022-11-21T00:06:13;25.42;;;12.77;;
71963;SDS011;59834;52.124;5.422;2022-11-21T00:08:40;29.55;;;14.20;;
71963;SDS011;59834;52.124;5.422;2022-11-21T00:11:06;26.95;;;12.35;;
71963;SDS011;59834;52.124;5.422;2022-11-21T00:13:33;26.23;;;12.73;;
71963;SDS011;59834;52.124;5.422;2022-11-21T00:16:34;28.45;;;13.52;;
71963;SDS011;59834;52.124;5.422;2022-11-21T00:18:53;27.90;;;12.70;;
71963;SDS011;59834;52.124;5.422;2022-11-21T00:21:20;27.30;;;13.55;;
71963;SDS011;59834;52.124;5.422;2022-11-21T00:23:47;28.88;;;12.98;;
71963;SDS011;59834;52.124;5.422;2022-11-21T00:26:14;29.70;;;13.27;;
71963;SDS011;59834;52.124;5.422;2022-11-21T00:28:41;27.75;;;13.00;;
71963;SDS011;59834;52.124;5.422;2022-11-21T00:31:16;31.42;;;13.88;;
71963;SDS011;59834;52.124;5.422;2022-11-21T00:33:45;29.05;;;12.63;;
71963;SDS011;59834;52.124;5.422;2022-11-21T00:36:11;24.77;;;12.15;;
71963;SDS011;59834;52.124;5.422;2022-11-21T00:38:38;25.87;;;12.63;;
71963;SDS011;59834;52.124;5.422;2022-11-21T00:41:04;26.15;;;12.75;;
71963;SDS011;59834;52.124;5.422;2022-11-21T00:43:31;24.40;;;12.50;;
71963;SDS011;59834;52.124;5.422;2022-11-21T00:45:58;24.02;;;11.82;;
71963;SDS011;59834;52.124;5.422;2022-11-21T00:48:29;24.45;;;11.27;;
71963;SDS011;59834;52.124;5.422;2022-11-21T00:50:56;24.43;;;11.37;;
71963;SDS011;59834;52.124;5.422;2022-11-21T00:53:23;27.75;;;13.23;;
71963;SDS011;59834;52.124;5.422;2022-11-21T00:55:49;25.98;;;12.43;;
71963;SDS011;59834;52.124;5.422;2022-11-21T00:58:16;23.98;;;12.35;;
71963;SDS011;59834;52.124;5.422;2022-11-21T01:00:42;29.77;;;12.50;;
71963;SDS011;59834;52.124;5.422;2022-11-21T01:03:09;24.97;;;11.47;;
71963;SDS011;59834;52.124;5.422;2022-11-21T01:05:36;25.77;;;12.73;;
71963;SDS011;59834;52.124;5.422;2022-11-21T01:08:03;26.63;;;12.30;;
71963;SDS011;59834;52.124;5.422;2022-11-21T01:10:29;22.42;;;12.10;;
71963;SDS011;59834;52.124;5.422;2022-11-21T01:12:56;27.23;;;12.27;;
71963;SDS011;59834;52.124;5.422;2022-11-21T01:15:22;20.77;;;11.00;;
71963;SDS011;59834;52.124;5.422;2022-11-21T01:17:49;23.30;;;12.07;;
71963;SDS011;59834;52.124;5.422;2022-11-21T01:20:15;25.85;;;11.95;;
71963;SDS011;59834;52.124;5.422;2022-11-21T01:22:42;22.27;;;10.80;;
71963;SDS011;59834;52.124;5.422;2022-11-21T01:25:08;28.23;;;12.15;;
71963;SDS011;59834;52.124;5.422;2022-11-21T01:27:35;26.57;;;12.17;;
71963;SDS011;59834;52.124;5.422;2022-11-21T01:30:01;24.33;;;11.93;;
71963;SDS011;59834;52.124;5.422;2022-11-21T01:32:28;24.20;;;11.48;;
71963;SDS011;59834;52.124;5.422;2022-11-21T01:34:55;22.58;;;11.60;;
71963;SDS011;59834;52.124;5.422;2022-11-21T01:37:21;25.95;;;12.27;;
71963;SDS011;59834;52.124;5.422;2022-11-21T01:39:48;25.63;;;11.63;;
71963;SDS011;59834;52.124;5.422;2022-11-21T01:42:14;26.48;;;12.25;;
71963;SDS011;59834;52.124;5.422;2022-11-21T01:44:45;27.40;;;13.05;;
71963;SDS011;59834;52.124;5.422;2022-11-21T01:47:16;35.08;;;13.90;;
71963;SDS011;59834;52.124;5.422;2022-11-21T01:49:43;28.77;;;12.43;;
71963;SDS011;59834;52.124;5.422;2022-11-21T01:52:25;24.47;;;12.67;;
71963;SDS011;59834;52.124;5.422;2022-11-21T01:57:32;26.08;;;12.93;;
71963;SDS011;59834;52.124;5.422;2022-11-21T02:00:12;26.33;;;12.48;;
71963;SDS011;59834;52.124;5.422;2022-11-21T02:02:48;23.58;;;12.50;;
71963;SDS011;59834;52.124;5.422;2022-11-21T02:05:20;23.83;;;12.27;;
71963;SDS011;59834;52.124;5.422;2022-11-21T02:07:49;28.45;;;12.68;;
71963;SDS011;59834;52.124;5.422;2022-11-21T02:10:20;23.23;;;13.02;;
71963;SDS011;59834;52.124;5.422;2022-11-21T02:12:52;27.77;;;13.38;;
71963;SDS011;59834;52.124;5.422;2022-11-21T02:15:20;24.63;;;12.55;;
71963;SDS011;59834;52.124;5.422;2022-11-21T02:17:49;28.63;;;11.57;;
71963;SDS011;59834;52.124;5.422;2022-11-21T02:20:23;24.02;;;12.02;;
71963;SDS011;59834;52.124;5.422;2022-11-21T02:22:57;24.02;;;12.50;;
71963;SDS011;59834;52.124;5.422;2022-11-21T02:25:34;25.65;;;12.75;;
71963;SDS011;59834;52.124;5.422;2022-11-21T02:28:07;26.23;;;13.18;;
71963;SDS011;59834;52.124;5.422;2022-11-21T02:30:35;27.97;;;13.17;;
71963;SDS011;59834;52.124;5.422;2022-11-21T02:33:04;25.95;;;12.13;;
71963;SDS011;59834;52.124;5.422;2022-11-21T02:35:31;26.15;;;12.60;;
71963;SDS011;59834;52.124;5.422;2022-11-21T02:38:00;39.78;;;12.95;;
71963;SDS011;59834;52.124;5.422;2022-11-21T02:40:36;30.77;;;13.05;;
71963;SDS011;59834;52.124;5.422;2022-11-21T02:45:47;26.20;;;10.45;;
71963;SDS011;59834;52.124;5.422;2022-11-21T02:48:13;29.58;;;11.43;;
71963;SDS011;59834;52.124;5.422;2022-11-21T02:50:41;29.35;;;11.32;;
71963;SDS011;59834;52.124;5.422;2022-11-21T02:53:10;29.55;;;11.32;;
71963;SDS011;59834;52.124;5.422;2022-11-21T02:55:40;30.53;;;12.57;;
71963;SDS011;59834;52.124;5.422;2022-11-21T02:58:08;34.00;;;11.55;;
71963;SDS011;59834;52.124;5.422;2022-11-21T03:00:35;29.25;;;12.07;;
71963;SDS011;59834;52.124;5.422;2022-11-21T03:03:03;26.77;;;12.18;;
71963;SDS011;59834;52.124;5.422;2022-11-21T03:05:30;37.13;;;12.23;;
71963;SDS011;59834;52.124;5.422;2022-11-21T03:07:58;31.53;;;11.33;;
71963;SDS011;59834;52.124;5.422;2022-11-21T03:10:24;26.05;;;10.50;;
71963;SDS011;59834;52.124;5.422;2022-11-21T03:12:51;24.88;;;11.95;;
71963;SDS011;59834;52.124;5.422;2022-11-21T03:15:30;37.80;;;11.57;;
71963;SDS011;59834;52.124;5.422;2022-11-21T03:18:00;28.30;;;10.52;;
71963;SDS011;59834;52.124;5.422;2022-11-21T03:20:29;28.20;;;10.80;;
71963;SDS011;59834;52.124;5.422;2022-11-21T03:22:56;28.63;;;10.63;;
71963;SDS011;59834;52.124;5.422;2022-11-21T03:25:26;27.67;;;11.25;;
71963;SDS011;59834;52.124;5.422;2022-11-21T03:27:52;39.63;;;11.77;;
71963;SDS011;59834;52.124;5.422;2022-11-21T03:30:20;44.83;;;11.13;;
71963;SDS011;59834;52.124;5.422;2022-11-21T03:32:48;29.47;;;11.87;;
71963;SDS011;59834;52.124;5.422;2022-11-21T03:35:14;47.92;;;11.95;;
71963;SDS011;59834;52.124;5.422;2022-11-21T03:37:41;35.30;;;11.80;;
71963;SDS011;59834;52.124;5.422;2022-11-21T03:40:08;49.90;;;11.43;;
71963;SDS011;59834;52.124;5.422;2022-11-21T03:42:35;58.55;;;12.60;;
71963;SDS011;59834;52.124;5.422;2022-11-21T03:45:02;29.10;;;12.10;;
71963;SDS011;59834;52.124;5.422;2022-11-21T03:47:30;42.67;;;12.15;;
71963;SDS011;59834;52.124;5.422;2022-11-21T03:49:56;39.78;;;10.88;;
71963;SDS011;59834;52.124;5.422;2022-11-21T03:52:23;50.30;;;11.65;;
71963;SDS011;59834;52.124;5.422;2022-11-21T03:54:49;114.50;;;13.20;;
71963;SDS011;59834;52.124;5.422;2022-11-21T03:57:17;79.73;;;12.17;;
71963;SDS011;59834;52.124;5.422;2022-11-21T03:59:45;81.05;;;11.27;;
71963;SDS011;59834;52.124;5.422;2022-11-21T04:02:12;58.08;;;11.27;;
71963;SDS011;59834;52.124;5.422;2022-11-21T04:04:39;60.75;;;11.43;;
71963;SDS011;59834;52.124;5.422;2022-11-21T04:07:06;47.95;;;11.38;;
71963;SDS011;59834;52.124;5.422;2022-11-21T04:09:33;96.73;;;11.90;;
71963;SDS011;59834;52.124;5.422;2022-11-21T04:11:59;56.35;;;11.63;;
71963;SDS011;59834;52.124;5.422;2022-11-21T04:14:32;112.75;;;11.40;;
71963;SDS011;59834;52.124;5.422;2022-11-21T04:16:59;109.95;;;11.15;;
71963;SDS011;59834;52.124;5.422;2022-11-21T04:19:26;61.53;;;10.80;;
71963;SDS011;59834;52.124;5.422;2022-11-21T04:21:53;108.17;;;13.07;;
71963;SDS011;59834;52.124;5.422;2022-11-21T04:24:22;50.17;;;10.48;;
71963;SDS011;59834;52.124;5.422;2022-11-21T04:26:49;54.95;;;12.05;;
71963;SDS011;59834;52.124;5.422;2022-11-21T04:29:15;64.50;;;11.57;;
71963;SDS011;59834;52.124;5.422;2022-11-21T04:31:44;76.03;;;11.85;;
71963;SDS011;59834;52.124;5.422;2022-11-21T04:34:11;43.90;;;11.47;;
71963;SDS011;59834;52.124;5.422;2022-11-21T04:36:38;93.70;;;13.43;;
71963;SDS011;59834;52.124;5.422;2022-11-21T04:39:06;43.20;;;12.50;;
71963;SDS011;59834;52.124;5.422;2022-11-21T04:41:33;40.63;;;11.52;;
71963;SDS011;59834;52.124;5.422;2022-11-21T04:44:01;61.88;;;12.30;;
71963;SDS011;59834;52.124;5.422;2022-11-21T04:46:28;35.50;;;10.87;;
71963;SDS011;59834;52.124;5.422;2022-11-21T04:48:54;74.90;;;11.88;;
71963;SDS011;59834;52.124;5.422;2022-11-21T04:51:21;70.03;;;12.30;;
71963;SDS011;59834;52.124;5.422;2022-11-21T04:53:48;49.95;;;12.18;;
71963;SDS011;59834;52.124;5.422;2022-11-21T04:56:15;38.03;;;10.45;;
71963;SDS011;59834;52.124;5.422;2022-11-21T04:58:45;34.97;;;11.17;;
71963;SDS011;59834;52.124;5.422;2022-11-21T05:01:11;54.03;;;11.40;;
71963;SDS011;59834;52.124;5.422;2022-11-21T05:03:40;48.42;;;10.88;;
71963;SDS011;59834;52.124;5.422;2022-11-21T05:06:07;54.00;;;11.52;;
71963;SDS011;59834;52.124;5.422;2022-11-21T05:08:33;59.80;;;11.20;;
71963;SDS011;59834;52.124;5.422;2022-11-21T05:11:00;91.87;;;11.87;;
71963;SDS011;59834;52.124;5.422;2022-11-21T05:13:45;85.68;;;10.90;;
71963;SDS011;59834;52.124;5.422;2022-11-21T05:16:12;96.65;;;11.50;;
71963;SDS011;59834;52.124;5.422;2022-11-21T05:18:38;53.83;;;10.75;;
71963;SDS011;59834;52.124;5.422;2022-11-21T05:21:05;70.13;;;11.68;;
71963;SDS011;59834;52.124;5.422;2022-11-21T05:23:31;54.17;;;11.23;;
71963;SDS011;59834;52.124;5.422;2022-11-21T05:25:58;50.78;;;10.95;;
71963;SDS011;59834;52.124;5.422;2022-11-21T05:28:25;53.08;;;11.23;;
71963;SDS011;59834;52.124;5.422;2022-11-21T05:30:52;65.57;;;10.65;;
71963;SDS011;59834;52.124;5.422;2022-11-21T05:33:18;61.88;;;12.18;;
71963;SDS011;59834;52.124;5.422;2022-11-21T05:35:46;52.47;;;11.00;;
71963;SDS011;59834;52.124;5.422;2022-11-21T05:38:14;27.60;;;10.43;;
71963;SDS011;59834;52.124;5.422;2022-11-21T05:40:41;46.28;;;10.90;;
71963;SDS011;59834;52.124;5.422;2022-11-21T05:43:09;39.75;;;11.25;;
71963;SDS011;59834;52.124;5.422;2022-11-21T05:45:56;59.35;;;11.75;;
71963;SDS011;59834;52.124;5.422;2022-11-21T05:48:22;64.37;;;10.53;;
71963;SDS011;59834;52.124;5.422;2022-11-21T05:50:51;48.72;;;10.73;;
71963;SDS011;59834;52.124;5.422;2022-11-21T05:53:17;45.10;;;12.00;;
71963;SDS011;59834;52.124;5.422;2022-11-21T05:55:44;50.22;;;11.20;;
71963;SDS011;59834;52.124;5.422;2022-11-21T05:58:11;72.28;;;11.02;;
71963;SDS011;59834;52.124;5.422;2022-11-21T06:00:39;60.53;;;10.90;;
71963;SDS011;59834;52.124;5.422;2022-11-21T06:03:08;48.08;;;11.85;;
71963;SDS011;59834;52.124;5.422;2022-11-21T06:06:03;89.97;;;11.88;;
71963;SDS011;59834;52.124;5.422;2022-11-21T06:08:33;56.17;;;11.18;;
71963;SDS011;59834;52.124;5.422;2022-11-21T06:11:08;59.78;;;10.80;;
71963;SDS011;59834;52.124;5.422;2022-11-21T06:13:36;90.00;;;12.13;;
71963;SDS011;59834;52.124;5.422;2022-11-21T06:18:36;73.30;;;10.82;;
71963;SDS011;59834;52.124;5.422;2022-11-21T06:21:04;49.50;;;10.80;;
71963;SDS011;59834;52.124;5.422;2022-11-21T06:23:34;64.72;;;11.18;;
71963;SDS011;59834;52.124;5.422;2022-11-21T06:26:03;55.53;;;11.57;;
71963;SDS011;59834;52.124;5.422;2022-11-21T06:28:32;44.47;;;11.40;;
71963;SDS011;59834;52.124;5.422;2022-11-21T06:31:01;47.80;;;11.48;;
71963;SDS011;59834;52.124;5.422;2022-11-21T06:33:32;40.70;;;11.63;;
71963;SDS011;59834;52.124;5.422;2022-11-21T06:38:34;47.97;;;10.40;;
71963;SDS011;59834;52.124;5.422;2022-11-21T06:41:06;34.55;;;11.75;;
71963;SDS011;59834;52.124;5.422;2022-11-21T06:43:36;30.75;;;11.23;;
71963;SDS011;59834;52.124;5.422;2022-11-21T06:46:03;33.60;;;11.10;;
71963;SDS011;59834;52.124;5.422;2022-11-21T06:48:31;39.35;;;10.20;;
71963;SDS011;59834;52.124;5.422;2022-11-21T06:51:02;25.37;;;10.33;;
71963;SDS011;59834;52.124;5.422;2022-11-21T06:53:30;30.83;;;10.48;;
71963;SDS011;59834;52.124;5.422;2022-11-21T06:56:01;33.00;;;11.68;;
71963;SDS011;59834;52.124;5.422;2022-11-21T06:58:29;32.15;;;11.55;;
71963;SDS011;59834;52.124;5.422;2022-11-21T07:01:02;33.67;;;11.90;;
71963;SDS011;59834;52.124;5.422;2022-11-21T07:03:31;28.73;;;9.73;;
71963;SDS011;59834;52.124;5.422;2022-11-21T07:05:58;30.70;;;11.73;;
71963;SDS011;59834;52.124;5.422;2022-11-21T07:08:27;26.40;;;10.45;;
71963;SDS011;59834;52.124;5.422;2022-11-21T07:10:54;28.60;;;10.35;;
71963;SDS011;59834;52.124;5.422;2022-11-21T07:13:42;30.52;;;10.77;;
71963;SDS011;59834;52.124;5.422;2022-11-21T07:16:09;25.73;;;10.53;;
71963;SDS011;59834;52.124;5.422;2022-11-21T07:18:40;27.35;;;10.10;;
71963;SDS011;59834;52.124;5.422;2022-11-21T07:21:08;30.65;;;10.40;;
71963;SDS011;59834;52.124;5.422;2022-11-21T07:23:35;28.35;;;11.13;;
71963;SDS011;59834;52.124;5.422;2022-11-21T07:26:02;26.23;;;10.48;;
71963;SDS011;59834;52.124;5.422;2022-11-21T07:28:31;23.67;;;10.23;;
71963;SDS011;59834;52.124;5.422;2022-11-21T07:30:59;21.65;;;8.88;;
71963;SDS011;59834;52.124;5.422;2022-11-21T07:33:26;25.95;;;10.07;;
71963;SDS011;59834;52.124;5.422;2022-11-21T07:35:56;25.02;;;10.40;;
71963;SDS011;59834;52.124;5.422;2022-11-21T07:38:23;25.90;;;10.70;;
71963;SDS011;59834;52.124;5.422;2022-11-21T07:40:51;24.63;;;9.80;;
71963;SDS011;59834;52.124;5.422;2022-11-21T07:43:18;27.25;;;10.48;;
71963;SDS011;59834;52.124;5.422;2022-11-21T07:45:45;30.92;;;11.05;;
71963;SDS011;59834;52.124;5.422;2022-11-21T07:48:11;30.02;;;10.65;;
71963;SDS011;59834;52.124;5.422;2022-11-21T07:50:38;26.15;;;10.63;;
71963;SDS011;59834;52.124;5.422;2022-11-21T07:53:05;24.20;;;10.60;;
71963;SDS011;59834;52.124;5.422;2022-11-21T07:55:33;30.35;;;10.40;;
71963;SDS011;59834;52.124;5.422;2022-11-21T07:58:07;25.02;;;9.60;;
71963;SDS011;59834;52.124;5.422;2022-11-21T08:00:36;25.63;;;10.18;;
71963;SDS011;59834;52.124;5.422;2022-11-21T08:03:05;25.23;;;10.43;;
71963;SDS011;59834;52.124;5.422;2022-11-21T08:05:36;29.17;;;11.47;;
71963;SDS011;59834;52.124;5.422;2022-11-21T08:08:06;21.88;;;9.07;;
71963;SDS011;59834;52.124;5.422;2022-11-21T08:10:37;21.70;;;9.35;;
71963;SDS011;59834;52.124;5.422;2022-11-21T08:13:10;21.10;;;9.13;;
71963;SDS011;59834;52.124;5.422;2022-11-21T08:15:40;25.35;;;9.45;;
71963;SDS011;59834;52.124;5.422;2022-11-21T08:18:10;17.43;;;8.27;;
71963;SDS011;59834;52.124;5.422;2022-11-21T08:20:43;23.63;;;9.98;;
71963;SDS011;59834;52.124;5.422;2022-11-21T08:23:10;24.95;;;9.88;;
71963;SDS011;59834;52.124;5.422;2022-11-21T08:25:37;23.20;;;10.35;;
71963;SDS011;59834;52.124;5.422;2022-11-21T08:28:05;28.10;;;10.25;;
71963;SDS011;59834;52.124;5.422;2022-11-21T08:30:33;21.03;;;10.13;;
71963;SDS011;59834;52.124;5.422;2022-11-21T08:33:01;18.85;;;9.35;;
71963;SDS011;59834;52.124;5.422;2022-11-21T08:35:28;20.27;;;9.57;;
71963;SDS011;59834;52.124;5.422;2022-11-21T08:37:58;24.27;;;9.38;;
71963;SDS011;59834;52.124;5.422;2022-11-21T08:40:27;23.88;;;10.07;;
71963;SDS011;59834;52.124;5.422;2022-11-21T08:42:55;21.80;;;10.03;;
71963;SDS011;59834;52.124;5.422;2022-11-21T08:45:30;27.45;;;10.85;;
71963;SDS011;59834;52.124;5.422;2022-11-21T08:47:57;23.13;;;10.32;;
71963;SDS011;59834;52.124;5.422;2022-11-21T08:50:24;29.45;;;10.05;;
71963;SDS011;59834;52.124;5.422;2022-11-21T08:52:51;28.80;;;11.02;;
71963;SDS011;59834;52.124;5.422;2022-11-21T08:55:19;27.50;;;11.97;;
71963;SDS011;59834;52.124;5.422;2022-11-21T08:57:47;28.08;;;11.63;;
71963;SDS011;59834;52.124;5.422;2022-11-21T09:00:13;31.98;;;10.32;;
71963;SDS011;59834;52.124;5.422;2022-11-21T09:02:40;32.28;;;10.88;;
71963;SDS011;59834;52.124;5.422;2022-11-21T09:05:07;25.23;;;10.82;;
71963;SDS011;59834;52.124;5.422;2022-11-21T09:07:34;27.20;;;11.33;;
71963;SDS011;59834;52.124;5.422;2022-11-21T09:10:02;32.80;;;11.63;;
71963;SDS011;59834;52.124;5.422;2022-11-21T09:12:29;28.25;;;12.57;;
71963;SDS011;59834;52.124;5.422;2022-11-21T09:14:56;28.35;;;11.45;;
71963;SDS011;59834;52.124;5.422;2022-11-21T09:17:41;30.45;;;11.27;;
71963;SDS011;59834;52.124;5.422;2022-11-21T09:20:25;34.77;;;12.37;;
71963;SDS011;59834;52.124;5.422;2022-11-21T09:22:52;41.30;;;12.23;;
71963;SDS011;59834;52.124;5.422;2022-11-21T09:25:19;37.50;;;12.45;;
71963;SDS011;59834;52.124;5.422;2022-11-21T09:27:45;25.73;;;11.85;;
71963;SDS011;59834;52.124;5.422;2022-11-21T09:30:12;32.83;;;12.10;;
71963;SDS011;59834;52.124;5.422;2022-11-21T09:32:39;33.27;;;12.57;;
71963;SDS011;59834;52.124;5.422;2022-11-21T09:35:05;45.42;;;14.52;;
71963;SDS011;59834;52.124;5.422;2022-11-21T09:37:36;35.63;;;12.77;;
71963;SDS011;59834;52.124;5.422;2022-11-21T09:40:03;29.90;;;12.50;;
71963;SDS011;59834;52.124;5.422;2022-11-21T09:45:25;41.40;;;13.17;;
71963;SDS011;59834;52.124;5.422;2022-11-21T09:48:01;33.90;;;11.95;;
71963;SDS011;59834;52.124;5.422;2022-11-21T09:50:34;40.28;;;13.32;;
71963;SDS011;59834;52.124;5.422;2022-11-21T09:53:26;33.90;;;12.32;;
71963;SDS011;59834;52.124;5.422;2022-11-21T09:56:00;36.13;;;12.48;;
71963;SDS011;59834;52.124;5.422;2022-11-21T09:58:35;31.83;;;10.77;;
71963;SDS011;59834;52.124;5.422;2022-11-21T10:01:14;31.08;;;11.80;;
71963;SDS011;59834;52.124;5.422;2022-11-21T10:03:43;39.17;;;11.90;;
71963;SDS011;59834;52.124;5.422;2022-11-21T10:06:21;33.90;;;11.88;;
71963;SDS011;59834;52.124;5.422;2022-11-21T10:25:35;32.58;;;11.75;;
71963;SDS011;59834;52.124;5.422;2022-11-21T10:30:43;31.85;;;13.07;;
71963;SDS011;59834;52.124;5.422;2022-11-21T10:33:17;35.72;;;11.73;;
71963;SDS011;59834;52.124;5.422;2022-11-21T10:35:54;35.03;;;12.18;;
71963;SDS011;59834;52.124;5.422;2022-11-21T10:38:25;30.98;;;12.13;;
71963;SDS011;59834;52.124;5.422;2022-11-21T10:46:17;28.30;;;10.70;;
71963;SDS011;59834;52.124;5.422;2022-11-21T10:48:54;22.63;;;11.45;;
71963;SDS011;59834;52.124;5.422;2022-11-21T10:51:32;23.52;;;10.90;;
71963;SDS011;59834;52.124;5.422;2022-11-21T10:54:07;23.43;;;10.90;;
71963;SDS011;59834;52.124;5.422;2022-11-21T10:56:58;46.65;;;15.73;;
71963;SDS011;59834;52.124;5.422;2022-11-21T10:59:40;30.20;;;12.10;;
71963;SDS011;59834;52.124;5.422;2022-11-21T11:02:25;27.77;;;11.10;;
71963;SDS011;59834;52.124;5.422;2022-11-21T11:10:43;25.30;;;11.95;;
71963;SDS011;59834;52.124;5.422;2022-11-21T11:16:19;25.15;;;12.02;;
71963;SDS011;59834;52.124;5.422;2022-11-21T11:19:01;27.50;;;11.95;;
71963;SDS011;59834;52.124;5.422;2022-11-21T11:21:41;35.43;;;13.20;;
71963;SDS011;59834;52.124;5.422;2022-11-21T11:29:16;26.92;;;13.05;;
71963;SDS011;59834;52.124;5.422;2022-11-21T11:31:54;23.42;;;11.65;;
71963;SDS011;59834;52.124;5.422;2022-11-21T11:34:26;25.80;;;12.87;;
71963;SDS011;59834;52.124;5.422;2022-11-21T11:37:06;28.80;;;12.20;;
71963;SDS011;59834;52.124;5.422;2022-11-21T11:39:58;29.55;;;13.30;;
71963;SDS011;59834;52.124;5.422;2022-11-21T11:45:59;29.73;;;13.90;;
71963;SDS011;59834;52.124;5.422;2022-11-21T11:48:52;33.17;;;13.13;;
71963;SDS011;59834;52.124;5.422;2022-11-21T11:51:45;29.20;;;13.00;;
71963;SDS011;59834;52.124;5.422;2022-11-21T11:54:54;32.13;;;13.32;;
71963;SDS011;59834;52.124;5.422;2022-11-21T11:57:13;25.35;;;12.43;;
71963;SDS011;59834;52.124;5.422;2022-11-21T11:59:43;26.80;;;12.18;;
71963;SDS011;59834;52.124;5.422;2022-11-21T12:02:21;22.53;;;12.80;;
71963;SDS011;59834;52.124;5.422;2022-11-21T12:04:55;32.83;;;13.30;;
71963;SDS011;59834;52.124;5.422;2022-11-21T12:07:28;26.15;;;12.93;;
71963;SDS011;59834;52.124;5.422;2022-11-21T12:10:30;30.73;;;13.38;;
71963;SDS011;59834;52.124;5.422;2022-11-21T12:13:23;22.15;;;11.80;;
71963;SDS011;59834;52.124;5.422;2022-11-21T12:15:51;24.57;;;12.37;;
71963;SDS011;59834;52.124;5.422;2022-11-21T12:21:40;18.45;;;10.95;;
71963;SDS011;59834;52.124;5.422;2022-11-21T12:24:07;24.23;;;11.23;;
71963;SDS011;59834;52.124;5.422;2022-11-21T12:29:21;24.13;;;12.43;;
71963;SDS011;59834;52.124;5.422;2022-11-21T12:37:08;17.55;;;9.43;;
71963;SDS011;59834;52.124;5.422;2022-11-21T12:45:23;17.30;;;9.18;;
71963;SDS011;59834;52.124;5.422;2022-11-21T12:57:37;12.60;;;8.27;;
71963;SDS011;59834;52.124;5.422;2022-11-21T13:00:18;10.80;;;7.87;;
71963;SDS011;59834;52.124;5.422;2022-11-21T13:05:27;15.63;;;7.10;;
71963;SDS011;59834;52.124;5.422;2022-11-21T13:07:59;9.40;;;6.45;;
71963;SDS011;59834;52.124;5.422;2022-11-21T13:10:33;15.57;;;7.00;;
71963;SDS011;59834;52.124;5.422;2022-11-21T13:13:07;12.63;;;6.60;;
71963;SDS011;59834;52.124;5.422;2022-11-21T13:15:42;13.40;;;7.82;;
71963;SDS011;59834;52.124;5.422;2022-11-21T13:18:22;13.98;;;8.77;;
71963;SDS011;59834;52.124;5.422;2022-11-21T13:20:54;16.95;;;7.93;;
71963;SDS011;59834;52.124;5.422;2022-11-21T13:28:51;11.57;;;6.65;;
71963;SDS011;59834;52.124;5.422;2022-11-21T13:31:33;11.30;;;7.18;;
71963;SDS011;59834;52.124;5.422;2022-11-21T13:34:01;13.55;;;6.05;;
71963;SDS011;59834;52.124;5.422;2022-11-21T13:49:31;8.93;;;4.00;;
71963;SDS011;59834;52.124;5.422;2022-11-21T13:52:05;13.30;;;4.87;;
71963;SDS011;59834;52.124;5.422;2022-11-21T13:55:23;8.48;;;4.07;;
71963;SDS011;59834;52.124;5.422;2022-11-21T14:09:13;5.65;;;3.72;;
71963;SDS011;59834;52.124;5.422;2022-11-21T14:12:01;6.43;;;3.55;;
71963;SDS011;59834;52.124;5.422;2022-11-21T14:14:46;11.65;;;4.25;;
71963;SDS011;59834;52.124;5.422;2022-11-21T14:17:21;10.80;;;3.55;;
71963;SDS011;59834;52.124;5.422;2022-11-21T14:20:14;13.47;;;6.10;;
71963;SDS011;59834;52.124;5.422;2022-11-21T14:22:57;14.30;;;4.30;;
71963;SDS011;59834;52.124;5.422;2022-11-21T14:25:33;16.83;;;7.03;;
71963;SDS011;59834;52.124;5.422;2022-11-21T14:28:02;10.40;;;5.00;;
71963;SDS011;59834;52.124;5.422;2022-11-21T14:30:35;8.63;;;3.75;;
71963;SDS011;59834;52.124;5.422;2022-11-21T14:35:51;7.30;;;3.83;;
71963;SDS011;59834;52.124;5.422;2022-11-21T14:38:22;6.22;;;4.88;;
71963;SDS011;59834;52.124;5.422;2022-11-21T14:40:49;11.70;;;5.20;;
71963;SDS011;59834;52.124;5.422;2022-11-21T14:43:36;9.43;;;4.10;;
71963;SDS011;59834;52.124;5.422;2022-11-21T14:46:03;5.77;;;4.13;;
71963;SDS011;59834;52.124;5.422;2022-11-21T14:48:30;8.23;;;4.53;;
71963;SDS011;59834;52.124;5.422;2022-11-21T14:50:59;8.57;;;4.07;;
71963;SDS011;59834;52.124;5.422;2022-11-21T14:53:27;6.18;;;3.95;;
71963;SDS011;59834;52.124;5.422;2022-11-21T14:55:54;13.45;;;3.88;;
71963;SDS011;59834;52.124;5.422;2022-11-21T14:58:26;7.10;;;3.93;;
71963;SDS011;59834;52.124;5.422;2022-11-21T15:01:36;8.20;;;3.75;;
71963;SDS011;59834;52.124;5.422;2022-11-21T15:03:54;8.43;;;3.95;;
71963;SDS011;59834;52.124;5.422;2022-11-21T15:06:29;6.65;;;3.85;;
71963;SDS011;59834;52.124;5.422;2022-11-21T15:08:58;7.13;;;3.67;;
71963;SDS011;59834;52.124;5.422;2022-11-21T15:11:51;11.37;;;4.03;;
71963;SDS011;59834;52.124;5.422;2022-11-21T15:17:09;8.60;;;4.07;;
71963;SDS011;59834;52.124;5.422;2022-11-21T15:20:04;7.53;;;2.97;;
71963;SDS011;59834;52.124;5.422;2022-11-21T15:22:38;6.45;;;3.83;;
71963;SDS011;59834;52.124;5.422;2022-11-21T15:25:08;7.97;;;4.20;;
71963;SDS011;59834;52.124;5.422;2022-11-21T15:27:41;7.03;;;3.67;;
71963;SDS011;59834;52.124;5.422;2022-11-21T15:38:14;7.07;;;3.47;;
71963;SDS011;59834;52.124;5.422;2022-11-21T15:41:01;9.10;;;3.63;;
71963;SDS011;59834;52.124;5.422;2022-11-21T15:46:22;9.25;;;4.05;;
71963;SDS011;59834;52.124;5.422;2022-11-21T15:48:57;12.88;;;3.70;;
71963;SDS011;59834;52.124;5.422;2022-11-21T15:51:40;8.47;;;3.43;;
71963;SDS011;59834;52.124;5.422;2022-11-21T15:54:28;7.00;;;3.17;;
71963;SDS011;59834;52.124;5.422;2022-11-21T15:56:55;4.68;;;3.13;;
71963;SDS011;59834;52.124;5.422;2022-11-21T15:59:22;9.07;;;3.25;;
71963;SDS011;59834;52.124;5.422;2022-11-21T16:01:49;10.55;;;3.67;;
71963;SDS011;59834;52.124;5.422;2022-11-21T16:04:21;7.40;;;2.97;;
71963;SDS011;59834;52.124;5.422;2022-11-21T16:06:51;8.65;;;3.35;;
71963;SDS011;59834;52.124;5.422;2022-11-21T16:09:21;7.90;;;3.85;;
71963;SDS011;59834;52.124;5.422;2022-11-21T16:11:49;7.43;;;3.20;;
71963;SDS011;59834;52.124;5.422;2022-11-21T16:14:15;5.57;;;2.83;;
71963;SDS011;59834;52.124;5.422;2022-11-21T16:16:43;10.17;;;4.17;;
71963;SDS011;59834;52.124;5.422;2022-11-21T16:19:10;5.55;;;3.25;;
71963;SDS011;59834;52.124;5.422;2022-11-21T16:21:37;9.13;;;4.47;;
71963;SDS011;59834;52.124;5.422;2022-11-21T16:24:05;10.85;;;4.53;;
71963;SDS011;59834;52.124;5.422;2022-11-21T16:26:32;8.15;;;3.97;;
71963;SDS011;59834;52.124;5.422;2022-11-21T16:29:00;11.67;;;4.03;;
71963;SDS011;59834;52.124;5.422;2022-11-21T16:31:40;9.55;;;4.25;;
71963;SDS011;59834;52.124;5.422;2022-11-21T16:34:07;9.77;;;4.57;;
71963;SDS011;59834;52.124;5.422;2022-11-21T16:36:33;11.25;;;4.57;;
71963;SDS011;59834;52.124;5.422;2022-11-21T16:39:00;10.63;;;4.60;;
71963;SDS011;59834;52.124;5.422;2022-11-21T16:41:34;8.40;;;4.07;;
71963;SDS011;59834;52.124;5.422;2022-11-21T16:44:00;8.77;;;4.05;;
71963;SDS011;59834;52.124;5.422;2022-11-21T16:46:27;9.70;;;3.97;;
71963;SDS011;59834;52.124;5.422;2022-11-21T16:48:57;8.52;;;3.97;;
71963;SDS011;59834;52.124;5.422;2022-11-21T16:51:26;11.43;;;3.90;;
71963;SDS011;59834;52.124;5.422;2022-11-21T16:53:54;9.20;;;3.73;;
71963;SDS011;59834;52.124;5.422;2022-11-21T16:56:24;11.07;;;4.50;;
71963;SDS011;59834;52.124;5.422;2022-11-21T16:58:51;10.10;;;5.28;;